Time;durP1;ratioP1;P1;durP2;ratioP2;P2;SDS_P1;SDS_P2;PMS_P1;PMS_P2;Temp;Humidity;BMP_temperature;BMP_pressure;BME280_temperature;BME280_humidity;BME280_pressure;Samples;Min_cycle;Max_cycle;Signal;HPM_P1;HPM_P2
2021/11/16 00:19:02;;;;;;;165.67;57.57;;;3.60;99.90;;;;;;5302516;22;20261;-85
2021/11/16 00:21:31;;;;;;;123.77;47.97;;;3.50;99.90;;;;;;5034951;28;20769;-83
2021/11/16 00:23:59;;;;;;;146.63;49.43;;;3.50;99.90;;;;;;5035368;28;20184;-83
2021/11/16 00:26:26;;;;;;;175.27;57.47;;;4.60;99.90;;;;;;5018494;28;20261;-84
2021/11/16 00:28:52;;;;;;;172.23;55.30;;;3.50;99.90;;;;;;5034807;28;20188;-83
2021/11/16 00:31:18;;;;;;;107.27;41.33;;;3.50;99.90;;;;;;5018095;28;20183;-84
2021/11/16 00:33:44;;;;;;;138.40;52.20;;;3.40;99.90;;;;;;5035915;28;20295;-84
2021/11/16 00:36:10;;;;;;;97.57;41.00;;;3.40;99.90;;;;;;5035532;28;20273;-85
2021/11/16 00:38:36;;;;;;;144.47;50.70;;;3.50;99.90;;;;;;5034659;28;20176;-84
2021/11/16 00:41:03;;;;;;;155.73;52.53;;;4.60;99.90;;;;;;5034676;28;20177;-84
2021/11/16 00:43:28;;;;;;;112.60;44.60;;;3.60;99.90;;;;;;5034427;28;20451;-84
2021/11/16 00:45:54;;;;;;;107.20;44.00;;;3.60;99.90;;;;;;5017733;28;20680;-84
2021/11/16 00:48:23;;;;;;;109.10;44.73;;;3.70;99.90;;;;;;5017799;28;20629;-84
2021/11/16 00:50:52;;;;;;;100.43;40.90;;;3.80;99.90;;;;;;5035636;28;20697;-83
2021/11/16 00:53:19;;;;;;;108.87;43.73;;;3.80;99.90;;;;;;5034324;28;20211;-84
2021/11/16 00:55:45;;;;;;;105.07;40.97;;;3.80;99.90;;;;;;5035683;28;20629;-84
2021/11/16 00:58:11;;;;;;;118.43;46.50;;;3.90;99.90;;;;;;5017680;28;20270;-87
2021/11/16 01:00:36;;;;;;;94.40;39.90;;;3.90;99.90;;;;;;5034253;28;20237;-84
2021/11/16 01:03:02;;;;;;;101.80;41.50;;;4.00;99.90;;;;;;5017680;28;20193;-83
2021/11/16 01:05:28;;;;;;;108.07;44.63;;;4.00;99.90;;;;;;5033984;28;20552;-83
2021/11/16 01:07:54;;;;;;;78.07;34.43;;;4.00;99.90;;;;;;5034264;28;20226;-83
2021/11/16 01:10:21;;;;;;;105.93;44.37;;;4.10;99.90;;;;;;5017471;28;20605;-83
2021/11/16 01:12:47;;;;;;;143.40;55.97;;;4.10;99.90;;;;;;5033960;28;20212;-83
2021/11/16 01:15:15;;;;;;;105.43;43.70;;;4.10;99.90;;;;;;5033804;28;20657;-88
2021/11/16 01:17:41;;;;;;;102.73;41.87;;;4.40;99.90;;;;;;5035144;28;20271;-83
2021/11/16 01:20:09;;;;;;;85.70;36.93;;;4.20;99.90;;;;;;5017112;28;20689;-83
2021/11/16 01:22:35;;;;;;;98.73;42.30;;;4.30;99.90;;;;;;5034901;28;20182;-83
2021/11/16 01:25:02;;;;;;;88.90;38.67;;;4.30;99.90;;;;;;5033731;28;20195;-84
2021/11/16 01:27:33;;;;;;;91.20;38.97;;;4.40;99.90;;;;;;5033590;28;20199;-84
2021/11/16 01:29:59;;;;;;;106.80;42.60;;;4.40;99.90;;;;;;5033647;28;20185;-84
2021/11/16 01:33:02;;;;;;;250.00;100.77;;;4.40;99.90;;;;;;5033519;28;20255;-84
2021/11/16 01:35:17;;;;;;;93.07;40.77;;;4.40;99.90;;;;;;5033155;28;20188;-85
2021/11/16 01:37:43;;;;;;;107.43;43.63;;;4.30;99.90;;;;;;5017195;28;20545;-83
2021/11/16 01:40:16;;;;;;;112.47;44.93;;;4.40;99.90;;;;;;5034757;28;20177;-83
2021/11/16 01:42:45;;;;;;;99.67;43.17;;;4.40;99.90;;;;;;5033840;28;20173;-84
2021/11/16 01:45:12;;;;;;;93.50;42.17;;;4.40;99.90;;;;;;5033193;28;20185;-84
2021/11/16 01:47:38;;;;;;;110.23;45.67;;;4.30;99.90;;;;;;5033207;28;20331;-83
2021/11/16 01:50:05;;;;;;;99.57;43.33;;;4.30;99.90;;;;;;5016913;28;20651;-83
2021/11/16 01:52:31;;;;;;;86.30;39.57;;;4.30;99.90;;;;;;5000573;28;20229;-83
2021/11/16 01:54:57;;;;;;;100.57;43.00;;;4.20;99.90;;;;;;5033356;28;20626;-83
2021/11/16 01:57:23;;;;;;;102.53;44.30;;;4.70;99.90;;;;;;5016020;28;20237;-83
2021/11/16 01:59:48;;;;;;;114.47;48.77;;;4.20;99.90;;;;;;5017072;28;20181;-83
2021/11/16 02:02:14;;;;;;;115.07;47.20;;;4.10;99.90;;;;;;5016358;28;20196;-82
2021/11/16 02:04:41;;;;;;;91.80;41.03;;;4.10;99.90;;;;;;5000397;28;20188;-83
2021/11/16 02:07:07;;;;;;;96.23;40.87;;;4.10;99.90;;;;;;5033202;28;20271;-82
2021/11/16 02:09:34;;;;;;;89.83;39.33;;;4.00;99.90;;;;;;5016900;28;20545;-82
2021/11/16 02:12:00;;;;;;;91.43;38.13;;;4.10;99.90;;;;;;5033063;28;20621;-82
2021/11/16 02:14:26;;;;;;;112.07;46.27;;;3.90;99.90;;;;;;5034513;28;20218;-83
2021/11/16 02:16:51;;;;;;;99.37;43.90;;;3.90;99.90;;;;;;5033790;28;20229;-83
2021/11/16 02:19:20;;;;;;;122.67;50.50;;;4.30;99.90;;;;;;5040295;28;20679;-84
2021/11/16 02:21:46;;;;;;;102.60;42.83;;;3.80;99.90;;;;;;5076880;28;20167;-84
2021/11/16 02:24:14;;;;;;;109.70;47.37;;;3.90;99.90;;;;;;5090114;28;20174;-83
2021/11/16 02:26:40;;;;;;;101.97;42.97;;;3.80;99.90;;;;;;5089493;28;20262;-84
2021/11/16 02:29:06;;;;;;;97.50;44.63;;;3.80;99.90;;;;;;5071268;28;20186;-82
2021/11/16 02:31:33;;;;;;;89.73;41.80;;;3.80;99.90;;;;;;5053167;28;20539;-84
2021/11/16 02:33:59;;;;;;;110.00;44.47;;;4.30;99.90;;;;;;5095572;28;20195;-83
2021/11/16 02:36:30;;;;;;;100.07;42.23;;;4.60;99.90;;;;;;5081435;28;20186;-85
2021/11/16 02:38:56;;;;;;;113.23;48.23;;;3.70;99.90;;;;;;5081290;28;20160;-84
2021/11/16 02:41:23;;;;;;;98.63;45.03;;;4.20;99.90;;;;;;5098462;28;20227;-81
2021/11/16 02:43:49;;;;;;;102.00;42.43;;;3.90;99.90;;;;;;5080951;28;20183;-83
2021/11/16 02:46:14;;;;;;;99.13;41.53;;;3.50;99.90;;;;;;5096007;28;20224;-83
2021/11/16 02:48:40;;;;;;;113.40;48.43;;;3.50;99.90;;;;;;5079361;28;20209;-82
2021/11/16 02:51:10;;;;;;;96.77;42.83;;;4.00;99.90;;;;;;5081302;28;20182;-82
2021/11/16 02:53:37;;;;;;;99.67;42.87;;;3.60;99.90;;;;;;5080716;28;20201;-85
2021/11/16 02:56:04;;;;;;;101.67;41.90;;;3.40;99.90;;;;;;5064596;28;20170;-83
2021/11/16 02:58:30;;;;;;;93.03;40.37;;;3.40;99.90;;;;;;5080557;28;20249;-85
2021/11/16 03:01:04;;;;;;;98.07;40.97;;;3.40;99.90;;;;;;5071550;28;20187;-83
2021/11/16 03:03:30;;;;;;;94.97;39.50;;;3.30;99.90;;;;;;5069971;28;20615;-85
2021/11/16 03:05:56;;;;;;;112.97;45.47;;;3.30;99.90;;;;;;5063217;28;20189;-83
2021/11/16 03:08:25;;;;;;;112.10;45.13;;;3.30;99.90;;;;;;5074423;28;20208;-83
2021/11/16 03:10:55;;;;;;;101.70;42.17;;;3.20;99.90;;;;;;5059751;28;20615;-83
2021/11/16 03:13:21;;;;;;;95.83;39.80;;;3.20;99.90;;;;;;5077786;28;20294;-83
2021/11/16 03:15:48;;;;;;;102.63;42.07;;;3.20;99.90;;;;;;5059622;28;20191;-83
2021/11/16 03:18:14;;;;;;;102.57;41.73;;;3.10;99.90;;;;;;5078003;28;20170;-83
2021/11/16 03:20:40;;;;;;;94.87;40.57;;;3.10;99.90;;;;;;5059595;28;20240;-83
2021/11/16 03:23:10;;;;;;;96.27;42.13;;;3.10;99.90;;;;;;5060181;28;20620;-83
2021/11/16 03:25:42;;;;;;;96.33;41.60;;;3.10;99.90;;;;;;5078536;28;20257;-83
2021/11/16 03:28:10;;;;;;;98.53;39.43;;;4.20;99.90;;;;;;5061675;28;20163;-82
2021/11/16 03:30:36;;;;;;;99.43;42.07;;;3.40;99.90;;;;;;5060123;28;20182;-83
2021/11/16 03:33:04;;;;;;;100.63;42.43;;;3.10;99.90;;;;;;5059695;28;20242;-83
2021/11/16 03:35:30;;;;;;;110.00;42.53;;;3.00;99.90;;;;;;5060266;28;20179;-83
2021/11/16 03:37:58;;;;;;;95.43;40.97;;;3.00;99.90;;;;;;5062925;28;20627;-83
2021/11/16 03:40:26;;;;;;;90.77;38.97;;;3.00;99.90;;;;;;5059480;28;20187;-83
2021/11/16 03:42:52;;;;;;;110.70;43.13;;;2.90;99.90;;;;;;5081325;28;20246;-84
2021/11/16 03:45:20;;;;;;;110.50;44.37;;;2.90;99.90;;;;;;5067621;28;20180;-82
2021/11/16 03:47:46;;;;;;;112.50;45.80;;;2.90;99.90;;;;;;5083273;28;20241;-81
2021/11/16 03:50:15;;;;;;;111.07;42.93;;;3.10;99.90;;;;;;5082678;28;20523;-84
2021/11/16 03:52:43;;;;;;;112.27;46.37;;;2.90;99.90;;;;;;5099403;28;20258;-87
2021/11/16 03:55:11;;;;;;;117.00;44.53;;;2.90;99.90;;;;;;5083302;28;20164;-83
2021/11/16 03:57:37;;;;;;;110.47;43.37;;;3.10;99.90;;;;;;5100474;28;20174;-89
2021/11/16 04:00:06;;;;;;;121.93;46.77;;;3.00;99.90;;;;;;5101118;28;20171;-82
2021/11/16 04:02:31;;;;;;;114.77;45.33;;;3.00;99.90;;;;;;5099538;28;20175;-83
2021/11/16 04:04:57;;;;;;;112.57;44.17;;;3.10;99.90;;;;;;5079893;28;20203;-83
2021/11/16 04:07:23;;;;;;;114.47;45.70;;;3.70;99.90;;;;;;5061350;28;20216;-83
2021/11/16 04:09:48;;;;;;;118.97;47.60;;;3.60;99.90;;;;;;5079409;28;20188;-83
2021/11/16 04:12:14;;;;;;;114.10;46.33;;;3.10;99.90;;;;;;5061194;28;20220;-83
2021/11/16 04:14:41;;;;;;;119.40;45.63;;;3.10;99.90;;;;;;5062549;28;20193;-88
2021/11/16 04:17:07;;;;;;;117.10;46.30;;;3.40;99.90;;;;;;5098108;28;20205;-85
2021/11/16 04:19:32;;;;;;;128.87;48.43;;;3.20;99.90;;;;;;5097047;28;20227;-84
2021/11/16 04:21:58;;;;;;;137.00;50.00;;;3.40;99.90;;;;;;5051253;28;20765;-84
2021/11/16 04:24:24;;;;;;;128.60;50.10;;;3.30;99.90;;;;;;5076254;28;20175;-84
2021/11/16 04:26:50;;;;;;;133.87;51.77;;;3.30;99.90;;;;;;5076245;28;20237;-83
2021/11/16 04:29:15;;;;;;;142.20;53.90;;;3.60;99.90;;;;;;5058712;28;20182;-84
2021/11/16 04:31:41;;;;;;;125.70;52.07;;;3.30;99.90;;;;;;5059179;28;20187;-88
2021/11/16 04:34:08;;;;;;;129.73;50.57;;;3.30;99.90;;;;;;5041951;28;20285;-83
2021/11/16 04:36:34;;;;;;;140.37;52.93;;;3.40;99.90;;;;;;5058324;28;20194;-84
2021/11/16 04:39:02;;;;;;;140.13;51.40;;;3.40;99.90;;;;;;5041986;28;20623;-87
2021/11/16 04:41:29;;;;;;;126.30;48.23;;;3.30;99.90;;;;;;5057995;28;20232;-82
2021/11/16 04:43:57;;;;;;;134.80;50.00;;;3.40;99.90;;;;;;5057870;28;20323;-83
2021/11/16 04:46:25;;;;;;;136.47;51.27;;;4.20;99.90;;;;;;5058279;28;20696;-82
2021/11/16 04:49:29;;;;;;;125.57;49.43;;;3.40;99.90;;;;;;5075691;28;20178;-83
2021/11/16 04:55:07;;;;;;;117.80;50.03;;;3.40;99.90;;;;;;5058906;28;20219;-83
2021/11/16 05:02:37;;;;;;;120.37;48.67;;;4.20;99.90;;;;;;5058193;28;20625;-83
2021/11/16 05:05:15;;;;;;;123.33;49.57;;;3.60;99.90;;;;;;5075683;28;20190;-83
2021/11/16 05:07:47;;;;;;;129.83;51.07;;;3.40;99.90;;;;;;5075703;28;20191;-83
2021/11/16 05:10:14;;;;;;;127.40;50.30;;;3.90;99.90;;;;;;5074975;28;20209;-83
2021/11/16 05:12:40;;;;;;;130.50;48.60;;;3.40;99.90;;;;;;5057222;28;20249;-84
2021/11/16 05:15:13;;;;;;;136.03;49.57;;;3.90;99.90;;;;;;5040600;28;20179;-83
2021/11/16 05:17:39;;;;;;;133.67;49.63;;;3.40;99.90;;;;;;5057156;28;20176;-83
2021/11/16 05:20:05;;;;;;;124.90;48.53;;;3.30;99.90;;;;;;5040342;28;20226;-83
2021/11/16 05:22:31;;;;;;;122.70;48.57;;;3.30;99.90;;;;;;5040316;28;20200;-83
2021/11/16 05:24:57;;;;;;;120.87;47.13;;;3.30;99.90;;;;;;5040210;28;20277;-83
2021/11/16 05:27:23;;;;;;;111.87;47.10;;;3.30;99.90;;;;;;5074909;28;20225;-83
2021/11/16 05:29:49;;;;;;;139.43;49.73;;;3.30;99.90;;;;;;5040249;28;20710;-86
2021/11/16 05:32:14;;;;;;;122.53;47.30;;;3.20;99.90;;;;;;5056045;28;20214;-83
2021/11/16 05:34:40;;;;;;;118.43;46.63;;;3.30;99.90;;;;;;5056968;28;20213;-83
2021/11/16 05:37:06;;;;;;;128.30;49.37;;;3.30;99.90;;;;;;5056593;28;20183;-84
2021/11/16 05:39:32;;;;;;;125.43;50.27;;;3.20;99.90;;;;;;5040032;28;20190;-83
2021/11/16 05:41:58;;;;;;;116.53;48.37;;;3.20;99.90;;;;;;5039815;28;20338;-83
2021/11/16 05:44:24;;;;;;;134.30;52.10;;;3.20;99.90;;;;;;5056605;28;20205;-82
2021/11/16 05:46:50;;;;;;;129.47;51.97;;;3.20;99.90;;;;;;5056980;28;20662;-83
2021/11/16 05:49:16;;;;;;;126.60;48.47;;;3.20;99.90;;;;;;5039618;28;20179;-84
2021/11/16 05:51:42;;;;;;;120.87;50.23;;;3.20;99.90;;;;;;5056354;28;20187;-83
2021/11/16 05:54:15;;;;;;;128.23;48.43;;;3.50;99.90;;;;;;5073705;28;20720;-83
2021/11/16 05:56:41;;;;;;;118.93;48.20;;;3.20;99.90;;;;;;5041031;28;20180;-82
2021/11/16 05:59:07;;;;;;;133.67;51.33;;;3.20;99.90;;;;;;5056066;28;20189;-83
2021/11/16 06:01:34;;;;;;;118.53;47.93;;;3.20;99.90;;;;;;5056017;28;20197;-83
2021/11/16 06:04:01;;;;;;;121.47;47.83;;;3.30;99.90;;;;;;5073777;28;20178;-84
2021/11/16 06:06:29;;;;;;;119.13;47.30;;;3.20;99.90;;;;;;5073905;28;20624;-83
2021/11/16 06:08:57;;;;;;;123.57;49.27;;;3.20;99.90;;;;;;5055865;28;20210;-84
2021/11/16 06:11:25;;;;;;;121.10;49.20;;;4.40;99.90;;;;;;5055466;28;20198;-84
2021/11/16 06:13:53;;;;;;;118.33;47.30;;;3.20;99.90;;;;;;5054289;28;20261;-84
2021/11/16 06:16:19;;;;;;;138.23;50.17;;;3.20;99.90;;;;;;5072616;28;20196;-83
2021/11/16 06:18:51;;;;;;;130.67;48.97;;;3.20;99.90;;;;;;5038091;28;20539;-83
2021/11/16 06:21:16;;;;;;;125.93;49.13;;;3.80;99.90;;;;;;5053683;28;20264;-83
2021/11/16 06:23:42;;;;;;;127.57;49.30;;;4.30;99.90;;;;;;5054730;28;20208;-82
2021/11/16 06:26:08;;;;;;;134.33;50.60;;;3.30;99.90;;;;;;5054228;28;20191;-82
2021/11/16 06:28:34;;;;;;;121.03;49.50;;;5.10;99.90;;;;;;5037771;28;20236;-81
2021/11/16 06:31:00;;;;;;;121.90;50.77;;;3.80;99.90;;;;;;5054164;28;20280;-80
2021/11/16 06:33:26;;;;;;;127.33;50.23;;;3.30;99.90;;;;;;5037436;28;20218;-81
2021/11/16 06:35:52;;;;;;;128.63;52.00;;;3.30;99.90;;;;;;5072053;28;20183;-80
2021/11/16 06:38:18;;;;;;;137.57;52.83;;;3.40;99.90;;;;;;5054179;28;20183;-82
2021/11/16 06:40:47;;;;;;;141.33;53.23;;;3.40;99.90;;;;;;5072511;28;20202;-81
2021/11/16 06:43:24;;;;;;;147.70;54.70;;;3.40;99.90;;;;;;5071744;28;20176;-81
2021/11/16 06:45:55;;;;;;;133.50;53.03;;;3.50;99.90;;;;;;5054945;28;20170;-81
2021/11/16 06:48:21;;;;;;;152.53;56.70;;;3.50;99.90;;;;;;5054818;28;20735;-80
2021/11/16 06:50:48;;;;;;;149.63;56.33;;;3.60;99.90;;;;;;5072488;28;20272;-81
2021/11/16 06:53:14;;;;;;;147.40;53.70;;;4.30;99.90;;;;;;5071027;28;20214;-82
2021/11/16 06:55:41;;;;;;;166.23;61.07;;;3.80;99.90;;;;;;5071985;28;20372;-82
2021/11/16 06:58:07;;;;;;;149.77;56.70;;;3.80;99.90;;;;;;5036948;28;20187;-85
2021/11/16 07:00:33;;;;;;;150.27;56.70;;;3.90;99.90;;;;;;5071622;28;20210;-81
2021/11/16 07:03:03;;;;;;;165.60;64.43;;;3.90;99.90;;;;;;5053150;28;20179;-82
2021/11/16 07:05:29;;;;;;;148.47;58.83;;;4.00;99.90;;;;;;5052734;28;20190;-82
2021/11/16 07:07:59;;;;;;;149.97;58.43;;;4.20;99.90;;;;;;5036707;28;20232;-82
2021/11/16 07:10:28;;;;;;;155.20;57.53;;;4.10;99.90;;;;;;5037100;28;20187;-82
2021/11/16 07:13:06;;;;;;;158.03;60.20;;;4.20;99.90;;;;;;5070941;28;20215;-81
2021/11/16 07:15:36;;;;;;;136.80;53.43;;;4.20;99.90;;;;;;5071100;28;20746;-81
2021/11/16 07:18:06;;;;;;;140.57;56.13;;;4.30;99.90;;;;;;5054474;28;20182;-81
2021/11/16 07:20:32;;;;;;;135.00;55.67;;;4.30;99.90;;;;;;5053956;28;20239;-81
2021/11/16 07:22:58;;;;;;;135.53;54.53;;;4.40;99.90;;;;;;5054019;28;20591;-82
2021/11/16 07:25:26;;;;;;;127.77;51.63;;;4.40;99.90;;;;;;5053773;28;20187;-83
2021/11/16 07:27:54;;;;;;;128.37;51.57;;;4.50;99.90;;;;;;5071981;28;20656;-81
2021/11/16 07:30:35;;;;;;;133.53;55.43;;;4.50;99.90;;;;;;5072165;28;20620;-81
2021/11/16 07:33:11;;;;;;;124.10;50.27;;;4.50;99.90;;;;;;5053455;28;20276;-82
2021/11/16 07:35:38;;;;;;;115.67;50.10;;;4.60;99.90;;;;;;5053922;28;20335;-82
2021/11/16 07:38:07;;;;;;;117.43;49.80;;;4.60;99.90;;;;;;5053742;28;20531;-84
2021/11/16 07:40:34;;;;;;;129.60;52.07;;;4.70;99.90;;;;;;5071833;28;20173;-81
2021/11/16 07:43:07;;;;;;;126.43;52.70;;;4.80;99.90;;;;;;5053583;28;20591;-81
2021/11/16 07:45:40;;;;;;;123.27;52.30;;;4.80;99.90;;;;;;5054248;28;20221;-80
2021/11/16 07:48:11;;;;;;;122.67;51.83;;;4.80;99.90;;;;;;5054333;28;20167;-84
2021/11/16 07:50:59;;;;;;;121.40;50.67;;;4.90;99.90;;;;;;5071940;28;20186;-80
2021/11/16 07:53:41;;;;;;;119.93;49.40;;;5.00;99.90;;;;;;5054062;28;20203;-81
2021/11/16 07:56:11;;;;;;;112.73;48.97;;;5.10;99.90;;;;;;5055810;28;20185;-83
2021/11/16 07:58:38;;;;;;;119.13;50.27;;;5.10;99.90;;;;;;5075234;28;20175;-83
2021/11/16 08:01:11;;;;;;;125.80;50.63;;;5.20;99.90;;;;;;5074811;28;20627;-82
2021/11/16 08:03:50;;;;;;;115.97;50.30;;;5.20;99.90;;;;;;5075021;28;20178;-81
2021/11/16 08:06:34;;;;;;;117.57;52.03;;;5.30;99.90;;;;;;5074862;28;20159;-83
2021/11/16 08:09:17;;;;;;;111.33;48.37;;;5.30;99.90;;;;;;5059474;28;20163;-83
2021/11/16 08:11:45;;;;;;;109.20;49.47;;;5.40;99.90;;;;;;5056962;28;20175;-82
2021/11/16 08:14:15;;;;;;;115.73;50.57;;;5.50;99.90;;;;;;5041359;28;20207;-85
2021/11/16 08:16:51;;;;;;;113.53;49.73;;;5.50;99.90;;;;;;5075032;28;20566;-83
2021/11/16 08:19:21;;;;;;;109.93;52.13;;;5.50;99.90;;;;;;5074634;28;21944;-84
2021/11/16 08:21:48;;;;;;;124.73;56.40;;;5.60;99.90;;;;;;5074989;28;20174;-82
2021/11/16 08:24:16;;;;;;;111.13;48.53;;;5.70;99.90;;;;;;5056948;28;20290;-87
2021/11/16 08:26:43;;;;;;;110.47;47.97;;;5.60;99.90;;;;;;5075450;28;20737;-84
2021/11/16 08:29:12;;;;;;;99.97;46.73;;;5.60;99.90;;;;;;5057033;28;20657;-83
2021/11/16 08:31:48;;;;;;;110.87;49.77;;;5.80;99.90;;;;;;5055962;28;20175;-83
2021/11/16 08:34:14;;;;;;;104.70;49.03;;;5.80;99.90;;;;;;5073436;28;20209;-86
2021/11/16 08:36:58;;;;;;;107.13;46.37;;;5.90;99.90;;;;;;5055965;28;20183;-83
2021/11/16 08:39:37;;;;;;;101.27;45.13;;;5.90;99.90;;;;;;5055700;28;20175;-84
2021/11/16 08:42:19;;;;;;;105.70;44.83;;;6.00;99.90;;;;;;5074507;28;20163;-83
2021/11/16 08:45:12;;;;;;;107.03;45.80;;;6.00;99.90;;;;;;5074426;28;20165;-84
2021/11/16 08:47:48;;;;;;;97.13;42.63;;;6.00;99.90;;;;;;5074590;28;20155;-84
2021/11/16 08:50:28;;;;;;;94.83;42.70;;;6.00;99.90;;;;;;5074993;28;20162;-83
2021/11/16 08:52:56;;;;;;;102.57;44.10;;;6.00;99.90;;;;;;5057382;28;20210;-82
2021/11/16 08:55:26;;;;;;;95.83;42.23;;;6.10;99.90;;;;;;5075849;28;20180;-83
2021/11/16 08:57:52;;;;;;;91.73;42.67;;;6.10;99.90;;;;;;5058703;28;20608;-83
2021/11/16 09:00:23;;;;;;;97.47;41.60;;;6.10;99.90;;;;;;5041206;28;20182;-83
2021/11/16 09:02:51;;;;;;;107.10;45.67;;;6.20;99.90;;;;;;5075045;28;20187;-82
2021/11/16 09:05:18;;;;;;;99.20;42.90;;;6.10;99.90;;;;;;5057907;28;20180;-82
2021/11/16 09:07:57;;;;;;;107.20;44.53;;;6.10;99.90;;;;;;5061725;28;20187;-83
2021/11/16 09:10:32;;;;;;;108.07;44.70;;;6.20;99.90;;;;;;5053023;28;20205;-84
2021/11/16 09:13:00;;;;;;;109.80;43.37;;;6.20;99.90;;;;;;5090662;28;20170;-83
2021/11/16 09:15:37;;;;;;;113.87;45.53;;;6.20;99.90;;;;;;5072992;28;20182;-82
2021/11/16 09:18:29;;;;;;;107.27;44.03;;;6.20;99.90;;;;;;5091593;28;20246;-82
2021/11/16 09:21:02;;;;;;;112.63;45.27;;;6.30;99.90;;;;;;5074147;28;20246;-83
2021/11/16 09:23:39;;;;;;;97.97;41.27;;;6.30;99.90;;;;;;5082574;28;20194;-83
2021/11/16 09:26:19;;;;;;;97.50;42.53;;;6.30;99.90;;;;;;5082518;28;20226;-83
2021/11/16 09:28:54;;;;;;;90.03;41.03;;;6.30;99.90;;;;;;5082324;28;20190;-83
2021/11/16 09:31:25;;;;;;;88.60;40.90;;;6.30;99.90;;;;;;5099814;28;20170;-82
2021/11/16 09:33:53;;;;;;;89.80;40.10;;;6.40;99.90;;;;;;5081509;28;20203;-83
2021/11/16 09:36:37;;;;;;;89.67;41.90;;;6.40;99.90;;;;;;5065106;28;20194;-82
2021/11/16 09:39:17;;;;;;;89.47;39.37;;;6.50;99.90;;;;;;5099397;28;20178;-83
2021/11/16 09:41:59;;;;;;;82.10;38.60;;;6.60;99.90;;;;;;5099159;28;20155;-84
2021/11/16 09:44:43;;;;;;;87.53;39.33;;;6.70;99.90;;;;;;5099133;28;20147;-91
2021/11/16 09:47:19;;;;;;;83.00;38.33;;;6.60;99.90;;;;;;5071352;28;20179;-82
2021/11/16 09:50:01;;;;;;;77.77;36.63;;;6.70;99.90;;;;;;5056346;28;20185;-82
2021/11/16 09:52:32;;;;;;;83.17;37.77;;;6.70;99.90;;;;;;5056580;28;20674;-82
2021/11/16 09:55:08;;;;;;;86.20;40.97;;;6.70;99.90;;;;;;5074525;28;20206;-83
2021/11/16 09:57:36;;;;;;;90.93;39.57;;;6.70;99.90;;;;;;5074074;28;20182;-83
2021/11/16 10:00:12;;;;;;;86.17;40.93;;;6.70;99.90;;;;;;5056201;28;20187;-81
2021/11/16 10:02:47;;;;;;;81.53;39.47;;;6.70;99.90;;;;;;5073689;28;20191;-82
2021/11/16 10:05:21;;;;;;;88.47;40.07;;;6.70;99.90;;;;;;5073692;28;20162;-83
2021/11/16 10:07:49;;;;;;;74.07;36.10;;;6.70;99.90;;;;;;5055568;28;20178;-81
2021/11/16 10:10:16;;;;;;;79.97;37.17;;;6.60;99.90;;;;;;5073438;28;20175;-83
2021/11/16 10:12:46;;;;;;;92.13;40.10;;;6.70;99.90;;;;;;5038572;28;20233;-82
2021/11/16 10:15:15;;;;;;;82.50;37.40;;;6.80;99.90;;;;;;5073468;28;20225;-83
2021/11/16 10:17:42;;;;;;;72.53;35.80;;;6.90;99.90;;;;;;5055189;28;20247;-84
2021/11/16 10:20:08;;;;;;;83.70;39.03;;;7.10;99.90;;;;;;5041973;28;20240;-84
2021/11/16 10:22:34;;;;;;;83.13;38.87;;;7.10;99.90;;;;;;5033422;28;20184;-84
2021/11/16 10:25:15;;;;;;;83.07;38.37;;;7.10;99.90;;;;;;5032510;28;20721;-82
2021/11/16 10:27:43;;;;;;;84.13;39.77;;;7.20;99.90;;;;;;5032472;28;20180;-83
2021/11/16 10:30:14;;;;;;;95.23;43.07;;;7.20;99.90;;;;;;5032369;28;20204;-85
2021/11/16 10:32:42;;;;;;;85.60;38.13;;;7.20;99.90;;;;;;5030373;28;20774;-84
2021/11/16 10:35:11;;;;;;;68.23;35.60;;;7.30;99.90;;;;;;5031302;28;20221;-83
2021/11/16 10:38:08;;;;;;;66.70;33.53;;;7.30;99.90;;;;;;5031176;28;20184;-83
2021/11/16 10:40:35;;;;;;;79.47;35.03;;;7.30;99.90;;;;;;5014652;28;20222;-82
2021/11/16 10:43:02;;;;;;;73.03;34.33;;;7.30;99.90;;;;;;5031883;28;20180;-83
2021/11/16 10:45:42;;;;;;;78.63;35.60;;;7.20;99.90;;;;;;5031722;28;20606;-85
2021/11/16 10:48:10;;;;;;;75.90;36.77;;;7.30;99.90;;;;;;5033095;28;20156;-83
2021/11/16 10:50:39;;;;;;;85.97;39.33;;;7.20;99.90;;;;;;5031470;28;20176;-82
2021/11/16 10:53:11;;;;;;;88.23;41.67;;;7.20;99.90;;;;;;5032715;28;20209;-83
2021/11/16 10:55:49;;;;;;;84.97;37.20;;;7.20;99.90;;;;;;5031418;28;20176;-83
2021/11/16 10:58:27;;;;;;;76.13;36.30;;;7.30;99.90;;;;;;5032624;28;20180;-84
2021/11/16 11:01:00;;;;;;;74.83;34.30;;;7.20;99.90;;;;;;5031468;28;20525;-84
2021/11/16 11:03:31;;;;;;;109.33;42.90;;;7.20;99.90;;;;;;5031530;28;20775;-84
2021/11/16 11:06:38;;;;;;;75.17;34.93;;;7.20;99.90;;;;;;5032969;28;20189;-83
2021/11/16 11:09:06;;;;;;;95.00;39.73;;;7.20;99.90;;;;;;5032767;28;20675;-84
2021/11/16 11:11:38;;;;;;;84.47;38.47;;;7.20;99.90;;;;;;5032413;28;20204;-83
2021/11/16 11:14:17;;;;;;;77.33;37.30;;;7.20;99.90;;;;;;5032527;28;20211;-83
2021/11/16 11:16:51;;;;;;;92.57;39.87;;;7.20;99.90;;;;;;5031121;28;20648;-83
2021/11/16 11:19:19;;;;;;;86.23;39.70;;;7.20;99.90;;;;;;5036517;28;20543;-84
2021/11/16 11:21:58;;;;;;;75.63;35.80;;;7.40;99.90;;;;;;5054318;28;20541;-83
2021/11/16 11:24:32;;;;;;;85.13;38.63;;;7.70;99.90;;;;;;5072457;28;20166;-83
2021/11/16 11:27:01;;;;;;;71.67;34.17;;;7.80;99.90;;;;;;5054473;28;20220;-83
2021/11/16 11:29:45;;;;;;;76.63;35.37;;;7.90;99.90;;;;;;5055067;28;20175;-83
2021/11/16 11:32:23;;;;;;;73.40;34.87;;;7.80;99.90;;;;;;5058361;28;20645;-83
2021/11/16 11:34:59;;;;;;;82.03;34.87;;;7.80;99.90;;;;;;5076291;28;20710;-85
2021/11/16 11:37:26;;;;;;;91.50;39.30;;;7.70;99.90;;;;;;5076256;28;20159;-84
2021/11/16 11:40:29;;;;;;;70.03;34.37;;;7.60;99.90;;;;;;5075886;28;20767;-84
2021/11/16 11:43:02;;;;;;;70.23;34.47;;;7.60;99.90;;;;;;5003694;28;20186;-83
2021/11/16 11:45:32;;;;;;;74.97;33.73;;;7.60;99.90;;;;;;5058167;28;20254;-84
2021/11/16 11:48:00;;;;;;;79.37;36.50;;;7.50;99.90;;;;;;5058029;28;20179;-84
2021/11/16 11:50:29;;;;;;;83.43;38.57;;;7.50;99.90;;;;;;5058195;28;20179;-84
2021/11/16 11:53:02;;;;;;;64.53;32.93;;;7.50;99.90;;;;;;5057936;28;20207;-89
2021/11/16 11:55:31;;;;;;;71.93;34.77;;;7.40;99.90;;;;;;5077352;28;20206;-85
2021/11/16 11:57:57;;;;;;;60.07;32.23;;;7.40;99.90;;;;;;5060139;28;20177;-85
2021/11/16 12:00:25;;;;;;;70.83;35.13;;;7.40;99.90;;;;;;5076069;28;20175;-83
2021/11/16 12:02:52;;;;;;;76.10;37.67;;;7.40;99.90;;;;;;5075365;28;20190;-84
2021/11/16 12:05:19;;;;;;;75.60;36.73;;;7.40;99.90;;;;;;5057698;28;20182;-84
2021/11/16 12:07:45;;;;;;;74.07;36.50;;;7.40;99.90;;;;;;5040263;28;20175;-86
2021/11/16 12:10:12;;;;;;;67.90;33.60;;;7.50;99.90;;;;;;5057618;28;20187;-85
2021/11/16 12:12:37;;;;;;;68.33;35.90;;;7.80;99.90;;;;;;5057735;28;20203;-85
2021/11/16 12:15:09;;;;;;;73.10;34.30;;;8.30;99.90;;;;;;5075421;28;20175;-85
2021/11/16 12:17:46;;;;;;;72.73;34.77;;;8.60;99.90;;;;;;5075547;28;20163;-84
2021/11/16 12:20:38;;;;;;;68.87;33.60;;;9.00;99.90;;;;;;5075080;28;20273;-84
2021/11/16 12:23:10;;;;;;;65.83;31.03;;;9.30;99.90;;;;;;5057421;28;20620;-84
2021/11/16 12:25:36;;;;;;;63.00;31.33;;;9.70;99.90;;;;;;5075524;28;20168;-84
2021/11/16 12:28:26;;;;;;;67.87;34.10;;;10.20;99.90;;;;;;5057695;28;20565;-86
2021/11/16 12:30:52;;;;;;;60.23;31.57;;;10.80;99.90;;;;;;5057510;28;20183;-85
2021/11/16 12:33:41;;;;;;;58.40;31.40;;;11.10;99.90;;;;;;5040929;28;20207;-84
2021/11/16 12:36:08;;;;;;;62.77;30.70;;;11.30;99.90;;;;;;5057439;28;20175;-85
2021/11/16 12:38:52;;;;;;;62.27;31.27;;;10.90;99.90;;;;;;5057230;28;20217;-84
2021/11/16 12:41:27;;;;;;;56.10;31.67;;;10.40;99.90;;;;;;5056753;28;20245;-84
2021/11/16 12:43:55;;;;;;;58.37;31.77;;;10.00;99.90;;;;;;5074971;28;20681;-84
2021/11/16 12:46:23;;;;;;;59.17;30.53;;;9.90;99.90;;;;;;5057050;28;20540;-83
2021/11/16 12:48:54;;;;;;;55.10;30.53;;;9.90;99.90;;;;;;5056899;28;20174;-83
2021/11/16 12:51:20;;;;;;;57.83;29.57;;;10.10;99.90;;;;;;5056912;28;20186;-82
2021/11/16 12:53:54;;;;;;;57.70;30.33;;;10.30;99.90;;;;;;5056872;28;20672;-85
2021/11/16 12:56:22;;;;;;;59.87;32.23;;;10.20;99.90;;;;;;5074868;28;20182;-84
2021/11/16 12:58:55;;;;;;;63.47;34.33;;;10.00;99.90;;;;;;5040314;28;20198;-84
2021/11/16 13:01:43;;;;;;;56.72;31.92;;;9.70;99.90;;;;;;5074718;28;20527;-83
2021/11/16 13:04:12;;;;;;;75.80;35.93;;;9.40;99.90;;;;;;5074646;28;20203;-84
2021/11/16 13:06:40;;;;;;;92.90;42.50;;;9.20;99.90;;;;;;5040291;28;20176;-83
2021/11/16 13:09:08;;;;;;;87.77;41.23;;;9.00;99.90;;;;;;5056641;28;20201;-84
2021/11/16 13:11:44;;;;;;;68.87;35.70;;;8.80;99.90;;;;;;5040790;28;20218;-85